Jefferson City, MO (65101)

2:53 AM CST on February 07, 2016 (GMT -0600)
ALGOA RD BOTTOMS | | Change Station
CLOSE
Current Station
Personal Weather Station
Location: Jefferson City, MO
Elevation: 610 ft
Nearby Weather Stations

Elev 610 ft 38.55 °N, 92.09 °W | Updated 13 minutes ago

Partly Cloudy
Partly Cloudy
38.4 °F
Feels Like 34 °F
N
6.3
Wind Variable Wind from South

Today
High -- | Low -- °F
--% Chance of Precip.
Yesterday
High -- | Low -- °F
Precip. -- in
Pressure 30.12 in
Visibility 10.0 miles
Clouds Clear
Windchill 34 °F
Dew Point 28 °F
Humidity 67%
Rainfall 0.00 in
Snow Depth Not available.
7:08 AM 5:37 PM
Waning Crescent, 2% visible
METAR KJEF 070753Z AUTO 20004KT 10SM CLR 04/M02 A3014 RMK AO2 SLP199 T00441017 TSNO
Pressure 30.12 in
Visibility 10.0 miles
Clouds Clear
Windchill 34 °F
Dew Point 28 °F
Humidity 67%
Rainfall 0.00 in
Snow Depth Not available.
7:08 AM 5:37 PM
Waning Crescent, 2% visible
METAR KJEF 070753Z AUTO 20004KT 10SM CLR 04/M02 A3014 RMK AO2 SLP199 T00441017 TSNO

10-Day Weather Forecast

Almanac

Astronomy

Feb. 07, 2016 Rise Set
Actual Time
Civil Twilight
Nautical Twilight
Astronomical Twilight
Moon
Length of Visible Light
Length of Day
Tomorrow will be .
, % of the Moon is Illuminated

Today's Extremes

State Highs State Lows

Community

WunderPhotos

Upload Photos

1,891,171 photos uploaded!

WunderBlog® & News

Nearby

Air Quality

  Air Quality AQ Index Pollutant
Not available.

Snow Depth

Station Depth Elevation

Earthquake Activity

City Distance Mag. Time & Date
Minimum magnitude displayed is 2.5.

Coastal Water Temperatures

Place Temperature

Stations

Nearby Weather Stations

Station Location Temp. Windchill Dew Point Humidity Wind Precip. Elev Updated Type
                   

Watches & Warnings

There are currently no watches in effect.